Time;durP1;ratioP1;P1;durP2;ratioP2;P2;SDS_P1;SDS_P2;PMS_P1;PMS_P2;Temp;Humidity;BMP_temperature;BMP_pressure;BME280_temperature;BME280_humidity;BME280_pressure;Samples;Min_cycle;Max_cycle;Signal;HPM_P1;HPM_P2
2022/03/21 00:00:08;;;;;;;15.97;8.47;;;1.80;97.40;;;;;;2065510;28;20190;-72
2022/03/21 00:01:16;;;;;;;16.13;8.82;;;1.80;97.40;;;;;;2064312;28;20193;-72
2022/03/21 00:02:17;;;;;;;16.17;8.45;;;1.80;97.50;;;;;;2058331;28;20195;-72
2022/03/21 00:03:20;;;;;;;18.47;8.87;;;1.80;97.80;;;;;;2065144;28;20182;-73
2022/03/21 00:04:21;;;;;;;14.52;8.88;;;1.80;97.90;;;;;;2065113;28;20659;-74
2022/03/21 00:05:23;;;;;;;18.35;9.98;;;1.80;97.90;;;;;;2057052;28;20183;-72
2022/03/21 00:06:24;;;;;;;15.48;8.05;;;1.90;97.60;;;;;;2066676;28;20747;-73
2022/03/21 00:07:25;;;;;;;13.10;8.00;;;1.90;97.70;;;;;;2066590;28;20205;-72
2022/03/21 00:08:26;;;;;;;12.07;8.27;;;1.90;98.00;;;;;;2050833;29;20750;-71
2022/03/21 00:09:27;;;;;;;13.57;8.27;;;1.90;98.10;;;;;;2050998;28;20187;-73
2022/03/21 00:10:34;;;;;;;13.27;8.60;;;1.90;98.20;;;;;;2066983;28;20217;-72
2022/03/21 00:11:34;;;;;;;14.35;9.05;;;1.90;98.10;;;;;;2066292;28;20318;-73
2022/03/21 00:12:35;;;;;;;15.60;9.17;;;1.90;98.10;;;;;;2067213;28;20274;-73
2022/03/21 00:13:38;;;;;;;18.58;9.65;;;1.90;98.20;;;;;;2066569;28;20202;-73
2022/03/21 00:14:41;;;;;;;16.58;8.70;;;1.90;98.20;;;;;;2051093;28;20190;-72
2022/03/21 00:15:44;;;;;;;15.43;8.40;;;1.90;98.10;;;;;;2059798;28;20175;-73
2022/03/21 00:16:46;;;;;;;17.92;8.93;;;1.90;98.70;;;;;;2066588;28;20175;-72
2022/03/21 00:17:46;;;;;;;16.70;10.38;;;1.90;98.20;;;;;;2058711;28;20222;-71
2022/03/21 00:18:47;;;;;;;16.23;9.47;;;1.80;97.80;;;;;;2066764;28;20216;-72
2022/03/21 00:19:48;;;;;;;14.00;8.68;;;1.70;97.50;;;;;;2067375;28;20179;-72
2022/03/21 00:20:53;;;;;;;12.57;7.30;;;1.70;97.60;;;;;;2066706;28;20178;-72
2022/03/21 00:21:54;;;;;;;13.88;8.63;;;1.70;97.60;;;;;;2066143;28;20163;-73
2022/03/21 00:22:55;;;;;;;17.83;9.90;;;1.70;97.70;;;;;;2066894;28;20179;-73
2022/03/21 00:23:56;;;;;;;12.95;8.07;;;1.70;98.10;;;;;;2058379;28;20222;-72
2022/03/21 00:24:57;;;;;;;15.23;8.50;;;1.60;98.10;;;;;;2058588;28;20178;-72
2022/03/21 00:25:57;;;;;;;17.10;9.17;;;1.60;98.40;;;;;;2066147;28;20182;-72
2022/03/21 00:26:58;;;;;;;15.53;9.07;;;1.60;98.60;;;;;;2074293;28;20259;-72
2022/03/21 00:27:59;;;;;;;14.43;8.63;;;1.60;98.60;;;;;;2066652;28;20248;-72
2022/03/21 00:29:00;;;;;;;13.15;7.78;;;1.50;98.90;;;;;;2058557;28;20241;-73
2022/03/21 00:30:02;;;;;;;13.67;8.33;;;1.50;98.70;;;;;;2058666;28;20254;-72
2022/03/21 00:31:04;;;;;;;13.95;8.57;;;1.40;98.80;;;;;;2066195;28;20189;-72
2022/03/21 00:32:05;;;;;;;14.80;7.78;;;1.40;98.80;;;;;;2066164;28;20182;-71
2022/03/21 00:33:07;;;;;;;13.98;8.52;;;1.40;98.90;;;;;;2058550;28;20943;-72
2022/03/21 00:34:08;;;;;;;15.00;8.73;;;1.40;98.90;;;;;;2066653;28;20194;-72
2022/03/21 00:35:15;;;;;;;19.50;9.03;;;1.30;99.10;;;;;;2067165;28;20277;-71
2022/03/21 00:36:16;;;;;;;13.70;8.48;;;1.30;99.40;;;;;;2066777;28;20166;-72
2022/03/21 00:37:17;;;;;;;12.50;8.48;;;1.30;99.50;;;;;;2058674;28;20228;-72
2022/03/21 00:38:19;;;;;;;17.93;8.70;;;1.40;99.60;;;;;;2066351;28;20328;-72
2022/03/21 00:39:20;;;;;;;13.05;8.30;;;1.40;99.40;;;;;;2066523;28;20178;-72
2022/03/21 00:40:21;;;;;;;14.87;9.10;;;1.40;99.50;;;;;;2066079;28;20197;-72
2022/03/21 00:41:22;;;;;;;15.43;8.40;;;1.40;99.40;;;;;;2065889;28;20245;-72
2022/03/21 00:42:22;;;;;;;15.10;8.00;;;1.40;99.10;;;;;;2058024;28;20718;-72
2022/03/21 00:43:24;;;;;;;15.90;8.53;;;1.40;99.20;;;;;;2066233;28;20191;-72
2022/03/21 00:44:24;;;;;;;14.55;8.50;;;1.40;99.20;;;;;;2066407;28;20190;-72
2022/03/21 00:45:25;;;;;;;14.37;8.57;;;1.40;99.10;;;;;;2058294;28;20187;-72
2022/03/21 00:46:26;;;;;;;15.13;8.53;;;1.40;99.10;;;;;;2066277;28;20182;-72
2022/03/21 00:47:27;;;;;;;13.50;8.07;;;1.40;99.10;;;;;;2066232;28;20178;-72
2022/03/21 00:48:30;;;;;;;15.47;8.70;;;1.40;99.00;;;;;;2066208;28;20178;-72
2022/03/21 00:49:30;;;;;;;13.82;8.18;;;1.40;98.80;;;;;;2058525;28;20233;-72
2022/03/21 00:50:31;;;;;;;14.30;8.57;;;1.50;98.60;;;;;;2066698;28;20201;-72
2022/03/21 00:51:32;;;;;;;14.50;8.63;;;1.50;99.10;;;;;;2065471;28;20190;-72
2022/03/21 00:52:46;;;;;;;13.80;8.70;;;1.50;98.50;;;;;;2066316;28;20669;-74
2022/03/21 00:53:46;;;;;;;14.45;8.68;;;1.50;98.20;;;;;;2066130;28;20197;-72
2022/03/21 00:54:47;;;;;;;16.40;8.87;;;1.60;97.80;;;;;;2058084;28;20230;-73
2022/03/21 00:55:49;;;;;;;16.93;9.70;;;1.60;97.60;;;;;;2066486;28;20179;-73
2022/03/21 00:56:50;;;;;;;13.98;8.98;;;1.60;97.50;;;;;;2066525;28;20741;-73
2022/03/21 00:57:51;;;;;;;14.77;8.03;;;1.60;97.20;;;;;;2066489;28;20179;-73
2022/03/21 00:58:52;;;;;;;15.30;8.97;;;1.60;97.20;;;;;;2066839;28;21004;-72
2022/03/21 00:59:53;;;;;;;16.45;9.65;;;1.60;97.20;;;;;;2066202;28;20201;-73
2022/03/21 01:00:54;;;;;;;14.03;8.27;;;1.70;97.20;;;;;;2066135;28;20734;-73
2022/03/21 01:01:54;;;;;;;13.97;8.47;;;1.70;97.00;;;;;;2066194;28;20174;-72
2022/03/21 01:02:58;;;;;;;15.63;9.27;;;1.70;97.00;;;;;;2066346;28;20586;-72
2022/03/21 01:03:59;;;;;;;16.15;8.68;;;1.70;96.90;;;;;;2066052;28;20221;-73
2022/03/21 01:04:59;;;;;;;16.13;9.00;;;1.70;96.90;;;;;;2066679;28;20183;-72
2022/03/21 01:06:00;;;;;;;13.87;8.37;;;1.70;96.50;;;;;;2066890;28;20680;-72
2022/03/21 01:07:00;;;;;;;14.13;9.07;;;1.70;96.60;;;;;;2066976;28;20201;-72
2022/03/21 01:08:02;;;;;;;14.83;9.13;;;1.70;96.70;;;;;;2066038;28;20191;-73
2022/03/21 01:09:03;;;;;;;14.95;8.43;;;1.70;96.80;;;;;;2066111;28;20195;-72
2022/03/21 01:10:07;;;;;;;16.77;9.70;;;1.70;96.50;;;;;;2066127;28;20196;-72
2022/03/21 01:11:08;;;;;;;16.10;9.02;;;1.70;96.30;;;;;;2065629;28;20212;-73
2022/03/21 01:12:09;;;;;;;14.20;8.33;;;1.60;96.60;;;;;;2057760;28;20223;-72
2022/03/21 01:13:10;;;;;;;14.10;8.70;;;1.60;96.90;;;;;;2066256;28;20213;-72
2022/03/21 01:14:12;;;;;;;17.87;9.73;;;1.60;96.90;;;;;;2066879;28;20186;-72
2022/03/21 01:15:16;;;;;;;15.65;9.18;;;1.60;97.30;;;;;;2066363;28;21045;-73
2022/03/21 01:16:16;;;;;;;17.80;9.93;;;1.50;97.50;;;;;;2066525;28;20210;-74
2022/03/21 01:17:17;;;;;;;18.63;9.63;;;1.60;97.40;;;;;;2073023;28;20597;-73
2022/03/21 01:18:18;;;;;;;16.03;9.97;;;1.60;97.30;;;;;;2065010;28;20190;-73
2022/03/21 01:19:18;;;;;;;16.17;8.60;;;1.50;97.40;;;;;;2065638;28;20185;-73
2022/03/21 01:20:21;;;;;;;12.97;8.07;;;1.50;97.70;;;;;;2065699;28;20182;-73
2022/03/21 01:21:21;;;;;;;13.82;8.85;;;1.50;97.70;;;;;;2064458;28;20186;-73
2022/03/21 01:22:22;;;;;;;15.67;9.20;;;1.50;97.60;;;;;;2056891;28;20996;-73
2022/03/21 01:23:23;;;;;;;20.03;10.27;;;1.50;97.50;;;;;;2064766;28;20198;-73
2022/03/21 01:24:25;;;;;;;14.60;8.60;;;1.50;97.80;;;;;;2065517;28;20214;-73
2022/03/21 01:25:25;;;;;;;15.55;9.07;;;1.40;98.00;;;;;;2065289;28;20184;-73
2022/03/21 01:26:26;;;;;;;17.50;8.97;;;1.40;98.00;;;;;;2064881;28;20182;-73
2022/03/21 01:27:29;;;;;;;16.27;9.00;;;1.40;98.20;;;;;;2065126;28;20178;-72
2022/03/21 01:28:30;;;;;;;13.10;8.90;;;1.40;98.30;;;;;;2057285;28;20179;-72
2022/03/21 01:29:31;;;;;;;16.10;9.13;;;1.50;98.20;;;;;;2065276;28;20294;-72
2022/03/21 01:30:31;;;;;;;15.32;8.80;;;1.50;97.80;;;;;;2072925;28;20754;-74
2022/03/21 01:31:33;;;;;;;14.30;8.87;;;1.50;97.90;;;;;;2064409;28;20182;-73
2022/03/21 01:32:34;;;;;;;15.95;8.77;;;1.50;97.80;;;;;;2064813;28;20284;-73
2022/03/21 01:33:36;;;;;;;15.27;8.85;;;1.40;98.30;;;;;;2064783;28;20293;-73
2022/03/21 01:34:37;;;;;;;16.33;8.90;;;1.40;97.80;;;;;;2057103;28;20636;-73
2022/03/21 01:35:38;;;;;;;13.20;8.90;;;1.40;97.60;;;;;;2065328;28;20277;-73
2022/03/21 01:36:38;;;;;;;14.43;8.80;;;1.40;97.90;;;;;;2073148;28;20185;-72
2022/03/21 01:37:39;;;;;;;14.83;8.77;;;1.40;98.10;;;;;;2072955;28;20177;-72
2022/03/21 01:38:40;;;;;;;14.40;7.70;;;1.30;98.30;;;;;;2065048;28;20197;-73
2022/03/21 01:39:40;;;;;;;14.23;8.80;;;1.30;98.10;;;;;;2065048;28;20189;-72
2022/03/21 01:40:41;;;;;;;16.13;9.67;;;1.30;98.10;;;;;;2073222;28;20656;-72
2022/03/21 01:41:42;;;;;;;16.50;9.80;;;1.20;98.40;;;;;;2072480;28;20192;-72
2022/03/21 01:42:46;;;;;;;12.38;7.85;;;1.20;98.80;;;;;;2065130;28;20183;-73
2022/03/21 01:44:05;;;;;;;14.07;9.18;;;1.20;98.80;;;;;;2057239;28;20279;-72
2022/03/21 01:45:07;;;;;;;15.15;8.20;;;1.20;98.80;;;;;;2058974;28;20238;-73
2022/03/21 01:46:08;;;;;;;13.65;7.72;;;1.20;99.00;;;;;;2057135;28;20191;-73
2022/03/21 01:47:09;;;;;;;14.77;8.18;;;1.20;98.80;;;;;;2064812;28;20185;-73
2022/03/21 01:48:10;;;;;;;15.93;8.73;;;1.30;98.70;;;;;;2064877;28;20185;-73
2022/03/21 01:49:11;;;;;;;15.93;7.93;;;1.20;98.30;;;;;;2056815;28;20201;-73
2022/03/21 01:50:14;;;;;;;14.83;8.43;;;1.20;98.50;;;;;;2056879;28;20171;-73
2022/03/21 01:51:14;;;;;;;14.93;8.43;;;1.20;98.60;;;;;;2055951;28;20573;-73
2022/03/21 01:52:15;;;;;;;12.33;8.47;;;1.20;98.80;;;;;;2057975;28;20274;-73
2022/03/21 01:55:56;;;;;;;12.43;6.85;;;1.30;98.00;;;;;;2056771;28;20670;-72
2022/03/21 01:56:57;;;;;;;14.52;8.65;;;1.30;97.70;;;;;;2051258;28;20592;-72
2022/03/21 01:57:59;;;;;;;10.85;7.40;;;1.30;97.60;;;;;;2056566;28;20187;-72
2022/03/21 01:59:00;;;;;;;16.23;8.52;;;1.30;97.80;;;;;;2056823;28;20267;-72
2022/03/21 02:00:03;;;;;;;14.30;8.27;;;1.30;97.80;;;;;;2048713;28;20191;-73
2022/03/21 02:01:04;;;;;;;11.32;7.78;;;1.30;97.90;;;;;;2048580;28;20210;-73
2022/03/21 02:02:06;;;;;;;12.53;8.33;;;1.30;97.70;;;;;;2056346;28;20586;-73
2022/03/21 02:03:07;;;;;;;14.82;8.75;;;1.30;97.70;;;;;;2056563;28;20576;-73
2022/03/21 02:04:09;;;;;;;14.23;8.13;;;1.40;97.70;;;;;;2056725;28;20238;-73
2022/03/21 02:05:10;;;;;;;14.98;8.80;;;1.30;97.60;;;;;;2061018;28;20277;-72
2022/03/21 02:06:11;;;;;;;15.73;9.37;;;1.30;97.60;;;;;;2064327;28;20186;-73
2022/03/21 02:07:12;;;;;;;14.00;8.77;;;1.30;97.70;;;;;;2064607;28;20190;-73
2022/03/21 02:08:14;;;;;;;17.40;9.57;;;1.20;97.70;;;;;;2065319;28;20559;-73
2022/03/21 02:09:15;;;;;;;13.38;8.98;;;1.20;98.20;;;;;;2064737;28;20186;-73
2022/03/21 02:10:15;;;;;;;16.00;9.40;;;1.20;98.30;;;;;;2064558;28;20273;-72
2022/03/21 02:11:16;;;;;;;14.67;8.90;;;1.10;98.50;;;;;;2064052;28;20459;-71
2022/03/21 02:12:20;;;;;;;15.48;9.05;;;1.10;98.80;;;;;;2056892;28;20275;-71
2022/03/21 02:13:22;;;;;;;15.13;9.45;;;1.10;98.90;;;;;;2064875;28;20559;-72
2022/03/21 02:14:23;;;;;;;13.68;8.80;;;1.10;98.90;;;;;;2064379;28;20189;-73
2022/03/21 02:15:25;;;;;;;13.83;8.33;;;1.10;99.20;;;;;;2064138;28;20597;-72
2022/03/21 02:16:28;;;;;;;14.75;8.35;;;1.10;99.10;;;;;;2065045;28;20190;-72
2022/03/21 02:17:34;;;;;;;14.38;8.32;;;1.10;99.00;;;;;;2064244;28;20186;-73
2022/03/21 02:18:38;;;;;;;16.02;9.00;;;1.10;99.00;;;;;;2057092;28;20186;-73
2022/03/21 02:19:40;;;;;;;15.32;8.90;;;1.10;99.50;;;;;;2057083;28;20680;-73
2022/03/21 02:20:42;;;;;;;14.00;8.60;;;1.10;99.90;;;;;;2048589;28;20236;-73
2022/03/21 02:22:05;;;;;;;16.90;9.15;;;1.00;99.40;;;;;;2058683;28;20194;-73
2022/03/21 02:23:30;;;;;;;13.50;7.72;;;1.00;99.30;;;;;;2065093;28;20657;-73
2022/03/21 02:24:38;;;;;;;14.45;8.80;;;1.00;99.50;;;;;;2064642;28;20224;-73
2022/03/21 02:25:43;;;;;;;13.60;7.22;;;1.00;99.70;;;;;;2064647;28;20171;-72
2022/03/21 02:26:45;;;;;;;14.63;8.38;;;1.00;99.60;;;;;;2056639;28;20175;-72
2022/03/21 02:27:48;;;;;;;16.85;9.25;;;1.00;99.60;;;;;;2056579;28;20201;-73
2022/03/21 02:28:49;;;;;;;14.30;8.32;;;1.10;99.50;;;;;;2055886;28;20190;-73
2022/03/21 02:29:50;;;;;;;12.68;9.27;;;1.00;99.30;;;;;;2056440;28;20961;-72
2022/03/21 02:30:53;;;;;;;11.32;7.57;;;1.00;99.30;;;;;;2064312;28;20269;-73
2022/03/21 02:31:55;;;;;;;14.65;8.15;;;1.10;99.20;;;;;;2063823;28;20600;-73
2022/03/21 02:32:57;;;;;;;13.52;8.27;;;1.10;99.50;;;;;;2056503;28;20254;-73
2022/03/21 02:33:58;;;;;;;17.77;9.15;;;1.10;99.50;;;;;;2064591;28;20209;-73
2022/03/21 02:35:00;;;;;;;13.90;8.57;;;1.20;99.10;;;;;;2056057;28;20240;-72
2022/03/21 02:36:02;;;;;;;15.52;8.55;;;1.20;98.80;;;;;;2056351;28;20715;-73
2022/03/21 02:37:05;;;;;;;12.88;8.18;;;1.20;98.30;;;;;;2064326;28;20241;-73
2022/03/21 02:38:07;;;;;;;12.82;8.23;;;1.10;98.30;;;;;;2064364;28;20181;-73
2022/03/21 02:39:08;;;;;;;15.13;8.07;;;1.10;98.50;;;;;;2064334;28;20238;-73
2022/03/21 02:40:09;;;;;;;15.07;9.27;;;1.10;98.50;;;;;;2064528;28;20201;-73
2022/03/21 02:41:14;;;;;;;15.27;7.57;;;1.10;98.50;;;;;;2063545;28;20175;-73
2022/03/21 02:42:15;;;;;;;13.43;8.27;;;1.10;98.30;;;;;;2048925;28;20183;-73
2022/03/21 02:43:15;;;;;;;15.67;9.73;;;1.10;98.10;;;;;;2048220;29;20912;-73
2022/03/21 02:44:16;;;;;;;12.40;8.03;;;1.00;98.00;;;;;;2056193;28;20632;-74
2022/03/21 02:45:17;;;;;;;12.77;8.20;;;0.90;98.30;;;;;;2056891;28;20252;-73
2022/03/21 02:46:18;;;;;;;14.57;9.03;;;0.80;99.20;;;;;;2056295;28;20666;-72
2022/03/21 02:47:18;;;;;;;12.03;7.87;;;0.80;98.90;;;;;;2056390;28;20183;-72
2022/03/21 02:48:20;;;;;;;13.47;8.50;;;0.80;99.10;;;;;;2056758;28;20183;-72
2022/03/21 02:49:21;;;;;;;15.05;9.55;;;0.80;99.20;;;;;;2056347;28;20191;-73
2022/03/21 02:50:49;;;;;;;15.93;8.70;;;0.80;99.70;;;;;;2062658;28;20220;-72
2022/03/21 02:51:52;;;;;;;13.38;7.68;;;0.70;99.90;;;;;;2063472;28;20178;-72
2022/03/21 02:52:55;;;;;;;13.40;7.85;;;0.70;99.90;;;;;;2064034;28;20178;-72
2022/03/21 02:53:56;;;;;;;11.13;7.00;;;0.70;99.90;;;;;;2056326;28;20294;-73
2022/03/21 02:54:57;;;;;;;12.97;7.10;;;0.80;99.90;;;;;;2064334;28;20639;-73
2022/03/21 02:55:57;;;;;;;15.03;8.33;;;0.80;99.90;;;;;;2064803;28;20183;-73
2022/03/21 02:56:59;;;;;;;13.17;8.43;;;0.80;99.90;;;;;;2064272;28;20193;-73
2022/03/21 02:58:00;;;;;;;16.02;9.20;;;0.90;99.60;;;;;;2064202;28;20229;-73
2022/03/21 02:59:01;;;;;;;16.80;9.50;;;0.80;99.50;;;;;;2064411;28;20631;-72
2022/03/21 03:00:02;;;;;;;14.87;9.27;;;0.90;99.20;;;;;;2064168;28;20186;-71
2022/03/21 03:01:12;;;;;;;14.80;8.85;;;0.90;99.10;;;;;;2064043;28;20827;-71
2022/03/21 03:02:13;;;;;;;15.35;9.30;;;0.90;99.20;;;;;;2065390;28;20210;-72
2022/03/21 03:03:14;;;;;;;16.47;9.77;;;0.80;99.60;;;;;;2072356;28;20185;-72
2022/03/21 03:04:15;;;;;;;15.43;9.53;;;0.80;99.90;;;;;;2064634;28;20208;-72
2022/03/21 03:05:16;;;;;;;14.45;8.52;;;0.80;99.90;;;;;;2064717;28;20293;-73
2022/03/21 03:06:17;;;;;;;16.50;9.13;;;0.80;99.90;;;;;;2064667;28;20271;-72
2022/03/21 03:07:17;;;;;;;14.23;8.63;;;0.80;99.90;;;;;;2064923;28;20196;-73
2022/03/21 03:08:18;;;;;;;16.97;9.60;;;0.80;99.90;;;;;;2064065;28;20210;-72
2022/03/21 03:09:20;;;;;;;14.57;8.23;;;0.80;99.90;;;;;;2056261;28;20267;-72
2022/03/21 03:10:20;;;;;;;14.80;8.77;;;0.70;99.90;;;;;;2063899;28;20275;-72
2022/03/21 03:11:21;;;;;;;14.80;9.97;;;0.80;99.90;;;;;;2063612;28;20873;-73
2022/03/21 03:12:22;;;;;;;14.80;9.00;;;0.70;99.90;;;;;;2063803;28;20244;-73
2022/03/21 03:13:23;;;;;;;16.43;8.50;;;0.70;99.90;;;;;;2056660;28;20646;-73
2022/03/21 03:14:23;;;;;;;15.15;8.68;;;0.70;99.90;;;;;;2064205;28;20559;-73
2022/03/21 03:15:24;;;;;;;16.57;8.83;;;0.90;99.90;;;;;;2064083;28;20186;-73
2022/03/21 03:16:25;;;;;;;17.77;9.43;;;1.00;99.60;;;;;;2056037;28;20722;-73
2022/03/21 03:17:26;;;;;;;13.60;8.33;;;1.10;99.00;;;;;;2056082;28;21008;-73
2022/03/21 03:18:27;;;;;;;14.10;8.13;;;1.20;98.50;;;;;;2057124;28;20657;-72
2022/03/21 03:19:28;;;;;;;12.47;7.70;;;1.30;98.10;;;;;;2064530;28;20198;-73
2022/03/21 03:20:32;;;;;;;13.88;9.00;;;1.40;97.70;;;;;;2064792;28;20457;-72
2022/03/21 03:21:45;;;;;;;14.63;7.95;;;1.40;97.50;;;;;;2062826;28;20201;-73
2022/03/21 03:22:46;;;;;;;17.00;10.05;;;1.30;97.40;;;;;;2064685;28;20581;-72
2022/03/21 03:23:50;;;;;;;12.70;8.02;;;1.30;97.10;;;;;;2055878;28;20321;-72
2022/03/21 03:24:52;;;;;;;13.88;8.73;;;1.30;97.40;;;;;;2049074;28;20180;-73
2022/03/21 03:26:01;;;;;;;14.70;8.75;;;1.30;97.70;;;;;;2056331;28;20193;-73
2022/03/21 03:27:02;;;;;;;15.73;9.60;;;1.30;98.40;;;;;;2048834;28;20179;-73
2022/03/21 03:28:02;;;;;;;16.37;9.40;;;1.40;98.10;;;;;;2048291;28;20274;-73
2022/03/21 03:29:04;;;;;;;19.23;9.00;;;1.30;98.00;;;;;;2055961;28;20206;-73
2022/03/21 03:30:05;;;;;;;16.02;9.07;;;1.30;97.90;;;;;;2064056;28;20229;-73
2022/03/21 03:31:06;;;;;;;15.30;8.73;;;1.30;98.00;;;;;;2064098;28;20202;-73
2022/03/21 03:32:07;;;;;;;17.00;9.20;;;1.20;98.10;;;;;;2063735;28;20190;-73
2022/03/21 03:33:08;;;;;;;15.27;9.05;;;1.20;98.30;;;;;;2055309;28;20171;-73
2022/03/21 03:34:09;;;;;;;13.05;8.20;;;1.20;98.40;;;;;;2063642;28;20301;-73
2022/03/21 03:35:10;;;;;;;13.95;9.23;;;1.20;98.20;;;;;;2056025;28;20250;-73
2022/03/21 03:36:13;;;;;;;16.30;8.03;;;1.20;98.60;;;;;;2056073;28;20583;-73
2022/03/21 03:37:14;;;;;;;15.73;8.75;;;1.10;98.80;;;;;;2056142;28;20187;-73
2022/03/21 03:38:16;;;;;;;15.27;9.23;;;1.10;99.10;;;;;;2055837;28;20218;-72
2022/03/21 03:39:17;;;;;;;18.00;8.68;;;1.10;99.50;;;;;;2063903;28;20193;-72
2022/03/21 03:40:18;;;;;;;15.48;8.70;;;1.10;99.50;;;;;;2063631;28;20191;-72
2022/03/21 03:41:19;;;;;;;15.85;8.98;;;1.10;99.40;;;;;;2063384;28;20676;-72
2022/03/21 03:42:20;;;;;;;17.83;10.23;;;1.10;99.40;;;;;;2064096;28;20190;-72
2022/03/21 03:43:21;;;;;;;14.38;7.93;;;1.10;99.80;;;;;;2063845;28;20269;-72
2022/03/21 03:44:25;;;;;;;16.43;8.27;;;1.10;99.90;;;;;;2064109;28;20272;-72
2022/03/21 03:45:26;;;;;;;15.93;7.95;;;1.10;99.90;;;;;;2063874;28;20615;-72
2022/03/21 03:46:27;;;;;;;15.63;9.23;;;1.10;99.90;;;;;;2056426;28;20214;-72
2022/03/21 03:47:28;;;;;;;14.77;9.33;;;1.10;99.90;;;;;;2055976;28;20190;-72
2022/03/21 03:48:29;;;;;;;14.20;9.13;;;1.00;99.90;;;;;;2063841;28;20187;-72
2022/03/21 03:49:30;;;;;;;16.05;8.68;;;1.00;99.90;;;;;;2063864;28;20296;-72
2022/03/21 03:50:31;;;;;;;14.00;8.03;;;1.00;99.90;;;;;;2063841;28;20206;-72
2022/03/21 03:51:31;;;;;;;15.33;9.20;;;1.00;99.90;;;;;;2063319;28;20594;-72
2022/03/21 03:52:32;;;;;;;17.03;9.00;;;1.00;99.90;;;;;;2055757;28;20190;-72
2022/03/21 03:53:33;;;;;;;14.93;8.87;;;0.90;99.90;;;;;;2063466;28;20198;-72
2022/03/21 03:54:34;;;;;;;14.27;9.47;;;0.90;99.90;;;;;;2063754;28;20618;-72
2022/03/21 03:55:34;;;;;;;15.17;8.23;;;0.90;99.80;;;;;;2063958;28;20803;-72
2022/03/21 03:56:35;;;;;;;15.27;8.60;;;0.80;99.90;;;;;;2063857;28;20284;-72
2022/03/21 03:57:36;;;;;;;14.10;8.07;;;0.80;99.90;;;;;;2063916;28;20196;-72
2022/03/21 03:58:38;;;;;;;12.27;7.70;;;0.70;99.90;;;;;;2063655;28;20179;-72
2022/03/21 03:59:40;;;;;;;14.40;8.05;;;0.60;99.90;;;;;;2055849;28;20175;-72
2022/03/21 04:00:40;;;;;;;15.73;9.38;;;0.60;99.90;;;;;;2055721;28;20206;-72
2022/03/21 04:01:41;;;;;;;14.63;8.90;;;0.60;99.90;;;;;;2063260;28;20558;-72
2022/03/21 04:04:02;;;;;;;17.33;10.05;;;0.60;99.90;;;;;;2063590;28;20299;-72
2022/03/21 04:05:03;;;;;;;11.93;7.70;;;0.60;99.90;;;;;;2058083;28;20202;-72
2022/03/21 04:06:03;;;;;;;15.53;8.20;;;0.70;99.90;;;;;;2063438;28;20249;-72
2022/03/21 04:07:04;;;;;;;14.63;8.57;;;0.70;99.90;;;;;;2063628;28;20448;-72
2022/03/21 04:08:05;;;;;;;15.60;8.13;;;0.80;99.90;;;;;;2063998;28;20244;-73
2022/03/21 04:09:06;;;;;;;13.30;8.45;;;0.80;99.90;;;;;;2063865;28;20265;-72
2022/03/21 04:10:07;;;;;;;15.33;9.57;;;0.90;99.70;;;;;;2063779;28;20182;-72
2022/03/21 04:11:08;;;;;;;14.13;8.90;;;0.90;99.50;;;;;;2063850;28;20190;-72
2022/03/21 04:12:09;;;;;;;14.03;8.57;;;0.80;99.70;;;;;;2064544;28;20190;-73
2022/03/21 04:13:10;;;;;;;14.93;8.80;;;0.80;99.90;;;;;;2064445;28;20712;-72
2022/03/21 04:14:10;;;;;;;16.10;9.57;;;0.80;99.90;;;;;;2064314;28;20201;-74
2022/03/21 04:15:11;;;;;;;16.40;9.97;;;0.80;99.90;;;;;;2063692;28;20776;-73
2022/03/21 04:16:14;;;;;;;15.87;8.97;;;0.80;99.90;;;;;;2063885;28;20269;-73
2022/03/21 04:17:14;;;;;;;15.30;9.65;;;0.90;99.90;;;;;;2063635;28;20236;-73
2022/03/21 04:18:15;;;;;;;20.30;10.47;;;0.90;99.90;;;;;;2063611;28;20245;-74
2022/03/21 04:19:16;;;;;;;14.90;8.77;;;0.90;99.90;;;;;;2071779;28;20193;-73
2022/03/21 04:20:17;;;;;;;15.20;8.73;;;1.00;99.90;;;;;;2071923;28;20243;-73
2022/03/21 04:21:17;;;;;;;14.03;7.83;;;1.00;99.90;;;;;;2063099;28;20313;-73
2022/03/21 04:22:18;;;;;;;17.17;9.63;;;1.10;99.90;;;;;;2063740;28;20654;-74
2022/03/21 04:23:19;;;;;;;15.63;8.60;;;1.10;99.90;;;;;;2063384;28;20201;-73
2022/03/21 04:24:20;;;;;;;16.58;8.60;;;1.20;99.90;;;;;;2055657;28;20237;-73
2022/03/21 04:25:21;;;;;;;14.27;9.30;;;1.20;99.70;;;;;;2047727;29;20183;-73
2022/03/21 04:26:22;;;;;;;15.75;8.95;;;1.20;99.70;;;;;;2055847;28;20211;-73
2022/03/21 04:27:22;;;;;;;14.43;8.60;;;1.30;99.50;;;;;;2063787;28;20762;-73
2022/03/21 04:28:23;;;;;;;15.37;9.13;;;1.20;99.50;;;;;;2055795;28;20187;-73
2022/03/21 04:29:24;;;;;;;14.77;8.97;;;1.20;99.90;;;;;;2055788;28;20222;-73
2022/03/21 04:30:25;;;;;;;15.97;8.63;;;1.20;99.70;;;;;;2065976;28;20707;-73
2022/03/21 04:31:25;;;;;;;14.83;8.17;;;1.20;99.60;;;;;;2063847;28;20284;-73
2022/03/21 04:32:27;;;;;;;13.60;8.70;;;1.30;99.90;;;;;;2064216;28;20201;-73
2022/03/21 04:33:27;;;;;;;15.52;8.35;;;1.30;99.90;;;;;;2064151;28;20202;-72
2022/03/21 04:34:28;;;;;;;16.13;8.40;;;1.40;99.90;;;;;;2055785;28;20641;-72
2022/03/21 04:35:29;;;;;;;13.20;8.30;;;1.40;99.70;;;;;;2056113;28;20259;-72
2022/03/21 04:36:30;;;;;;;15.07;8.90;;;1.40;99.60;;;;;;2063997;28;20455;-72
2022/03/21 04:37:30;;;;;;;16.10;8.27;;;1.50;99.30;;;;;;2056457;28;20670;-72
2022/03/21 04:38:31;;;;;;;13.10;7.67;;;1.40;98.80;;;;;;2063655;28;20209;-72
2022/03/21 04:39:32;;;;;;;13.47;7.33;;;1.30;98.70;;;;;;2063651;28;20296;-72
2022/03/21 04:40:32;;;;;;;13.67;8.33;;;1.20;99.40;;;;;;2063669;28;20183;-72
2022/03/21 04:41:33;;;;;;;15.00;8.57;;;1.10;99.80;;;;;;2055212;28;20194;-72
2022/03/21 04:42:35;;;;;;;13.33;8.03;;;1.00;99.90;;;;;;2055281;28;20187;-73
2022/03/21 04:43:36;;;;;;;16.23;8.48;;;1.10;99.90;;;;;;2063592;28;20203;-73
2022/03/21 04:44:39;;;;;;;13.70;7.53;;;1.10;99.90;;;;;;2055558;28;20188;-73
2022/03/21 04:45:42;;;;;;;12.65;8.20;;;1.20;99.90;;;;;;2056108;28;20184;-73
2022/03/21 04:46:42;;;;;;;14.73;8.65;;;1.20;99.90;;;;;;2056101;28;20183;-73
2022/03/21 04:47:45;;;;;;;16.43;8.13;;;1.20;99.90;;;;;;2063698;28;20185;-72
2022/03/21 04:48:46;;;;;;;12.73;8.63;;;1.30;99.90;;;;;;2055432;28;20239;-73
2022/03/21 04:49:47;;;;;;;15.00;8.90;;;1.30;99.70;;;;;;2055789;28;20648;-73
2022/03/21 04:50:48;;;;;;;15.00;8.68;;;1.40;99.50;;;;;;2063608;28;20221;-73
2022/03/21 04:51:49;;;;;;;14.33;8.33;;;1.40;99.50;;;;;;2055469;28;20187;-72
2022/03/21 04:52:50;;;;;;;12.80;8.27;;;1.40;99.30;;;;;;2057204;28;20202;-73
2022/03/21 04:53:51;;;;;;;17.07;9.67;;;1.50;99.00;;;;;;2065193;28;20202;-72
2022/03/21 04:54:51;;;;;;;16.77;10.27;;;1.50;99.00;;;;;;2065718;28;20711;-73
2022/03/21 04:55:52;;;;;;;12.10;7.10;;;1.50;99.10;;;;;;2065342;28;20187;-73
2022/03/21 04:56:53;;;;;;;13.33;7.57;;;1.50;99.10;;;;;;2057051;28;20182;-73
2022/03/21 04:57:54;;;;;;;13.23;7.25;;;1.50;99.20;;;;;;2057224;28;20175;-72
2022/03/21 04:58:55;;;;;;;12.20;7.43;;;1.60;99.40;;;;;;2065128;28;20186;-73
2022/03/21 04:59:56;;;;;;;13.57;7.90;;;1.60;99.30;;;;;;2065160;28;20280;-73
2022/03/21 05:00:56;;;;;;;12.80;7.43;;;1.60;99.10;;;;;;2065581;28;20177;-72
2022/03/21 05:01:57;;;;;;;15.17;7.60;;;1.60;98.90;;;;;;2065242;28;20224;-72
2022/03/21 05:02:58;;;;;;;10.53;7.13;;;1.60;99.00;;;;;;2065581;28;20183;-72
2022/03/21 05:04:00;;;;;;;16.65;7.65;;;1.60;98.80;;;;;;2065042;28;20218;-73
2022/03/21 05:05:00;;;;;;;14.75;8.18;;;1.50;99.10;;;;;;2057230;28;20247;-73
2022/03/21 05:06:01;;;;;;;15.73;8.33;;;1.50;99.20;;;;;;2065170;28;20182;-72
2022/03/21 05:07:02;;;;;;;11.93;6.73;;;1.60;99.40;;;;;;2065468;28;20197;-72
2022/03/21 05:08:04;;;;;;;13.23;7.60;;;1.60;99.30;;;;;;2065033;28;20757;-73
2022/03/21 05:09:06;;;;;;;13.70;8.20;;;1.60;99.30;;;;;;2065155;28;20214;-73
2022/03/21 05:10:09;;;;;;;12.88;7.28;;;1.50;99.20;;;;;;2065023;28;20217;-73
2022/03/21 05:11:10;;;;;;;12.50;7.95;;;1.50;99.70;;;;;;2056780;28;20202;-72
2022/03/21 05:12:12;;;;;;;12.32;7.65;;;1.40;99.90;;;;;;2065034;28;20284;-73
2022/03/21 05:13:15;;;;;;;15.90;8.10;;;1.40;99.90;;;;;;2064981;28;20178;-72
2022/03/21 05:14:17;;;;;;;18.05;9.07;;;1.40;99.90;;;;;;2057570;28;20191;-72
2022/03/21 05:15:18;;;;;;;13.75;8.60;;;1.40;99.90;;;;;;2056797;28;20191;-71
2022/03/21 05:16:19;;;;;;;14.50;8.40;;;1.40;99.90;;;;;;2057103;28;20195;-72
2022/03/21 05:17:19;;;;;;;16.30;8.27;;;1.30;99.90;;;;;;2064905;28;20197;-72
2022/03/21 05:18:21;;;;;;;20.30;8.60;;;1.30;99.90;;;;;;2057118;28;20191;-72
2022/03/21 05:19:22;;;;;;;15.00;8.32;;;1.20;99.90;;;;;;2049514;28;20198;-72
2022/03/21 05:20:23;;;;;;;12.30;7.73;;;1.20;99.90;;;;;;2057060;28;20195;-72
2022/03/21 05:21:23;;;;;;;18.77;8.77;;;1.20;99.90;;;;;;2057282;28;20183;-72
2022/03/21 05:22:24;;;;;;;16.33;9.73;;;1.20;99.90;;;;;;2069487;28;20723;-72
2022/03/21 05:31:21;;;;;;;14.88;8.00;;;1.10;99.90;;;;;;2064585;28;20174;-73
2022/03/21 05:32:22;;;;;;;11.93;7.17;;;1.10;99.90;;;;;;2065188;28;20285;-73